Albany, New York
Traffic Map
Current Weather Conditions
Albany, New York
Scattered Clouds
Scattered Clouds
80°
Feels Like: 80°
Wind Chill: 80° Ceiling: Unl
Heat Index: 80° Visibility: 10mi
Dew Point: 52° Wind: 18mph
Humidity: 38% Direction: 270° (W)
Pressure: 29.91in Gusts: 0mph
Raw Report DataKALB 231951Z 27016KT 10SM FEW050 SCT260 27/11 A2991 RMK AO2 SLP126 T02670111
Traffic Incident Summary
Active as of:
Severity:
Category:
InformationThere was an issue retrieving the traffic information for this location. Please try a different location or try again shortly.
Advertisements